sensor_id;sensor_type;location;lat;lon;timestamp;temperature;humidity
318;DHT22;146;53.448;10.228;2024-03-23T00:55:05;8.00;1.00
318;DHT22;146;53.448;10.228;2024-03-23T00:57:53;7.90;1.00
318;DHT22;146;53.448;10.228;2024-03-23T01:00:39;8.00;1.00
318;DHT22;146;53.448;10.228;2024-03-23T01:03:26;7.90;1.00
318;DHT22;146;53.448;10.228;2024-03-23T01:06:13;7.90;1.00
318;DHT22;146;53.448;10.228;2024-03-23T01:09:00;7.80;1.00
318;DHT22;146;53.448;10.228;2024-03-23T01:11:47;7.90;1.00
318;DHT22;146;53.448;10.228;2024-03-23T01:14:34;7.90;1.00
318;DHT22;146;53.448;10.228;2024-03-23T01:17:22;7.90;1.00
318;DHT22;146;53.448;10.228;2024-03-23T01:20:08;7.90;1.00
318;DHT22;146;53.448;10.228;2024-03-23T01:22:56;7.90;1.00
318;DHT22;146;53.448;10.228;2024-03-23T01:25:42;8.00;1.00
318;DHT22;146;53.448;10.228;2024-03-23T01:28:31;8.00;1.00
318;DHT22;146;53.448;10.228;2024-03-23T01:31:17;8.00;1.00
318;DHT22;146;53.448;10.228;2024-03-23T01:34:04;8.10;1.00
318;DHT22;146;53.448;10.228;2024-03-23T01:36:50;8.10;1.00
318;DHT22;146;53.448;10.228;2024-03-23T01:39:37;8.20;1.00
318;DHT22;146;53.448;10.228;2024-03-23T01:42:24;8.10;1.00
318;DHT22;146;53.448;10.228;2024-03-23T01:45:12;8.10;1.00
318;DHT22;146;53.448;10.228;2024-03-23T01:47:59;8.10;1.00
318;DHT22;146;53.448;10.228;2024-03-23T01:50:47;8.10;1.00
318;DHT22;146;53.448;10.228;2024-03-23T01:53:34;8.10;1.00
318;DHT22;146;53.448;10.228;2024-03-23T01:56:21;8.20;1.00
318;DHT22;146;53.448;10.228;2024-03-23T01:59:07;8.20;1.00
318;DHT22;146;53.448;10.228;2024-03-23T02:01:56;8.20;1.00
318;DHT22;146;53.448;10.228;2024-03-23T02:04:42;8.20;1.00
318;DHT22;146;53.448;10.228;2024-03-23T02:07:29;8.20;1.00
318;DHT22;146;53.448;10.228;2024-03-23T02:10:15;8.10;1.00
318;DHT22;146;53.448;10.228;2024-03-23T02:13:03;8.20;1.00
318;DHT22;146;53.448;10.228;2024-03-23T02:15:49;8.10;1.00
318;DHT22;146;53.448;10.228;2024-03-23T02:18:38;8.10;1.00
318;DHT22;146;53.448;10.228;2024-03-23T02:21:24;8.00;1.00
318;DHT22;146;53.448;10.228;2024-03-23T02:24:14;8.00;1.00
318;DHT22;146;53.448;10.228;2024-03-23T02:27:01;7.90;1.00
318;DHT22;146;53.448;10.228;2024-03-23T02:29:49;7.90;1.00
318;DHT22;146;53.448;10.228;2024-03-23T02:32:35;7.90;1.00
318;DHT22;146;53.448;10.228;2024-03-23T02:35:22;7.90;1.00
318;DHT22;146;53.448;10.228;2024-03-23T02:38:11;8.00;1.00
318;DHT22;146;53.448;10.228;2024-03-23T02:41:03;8.00;1.00
318;DHT22;146;53.448;10.228;2024-03-23T02:43:49;8.10;1.00
318;DHT22;146;53.448;10.228;2024-03-23T02:46:36;8.00;1.00
318;DHT22;146;53.448;10.228;2024-03-23T02:49:23;8.10;1.00
318;DHT22;146;53.448;10.228;2024-03-23T02:52:10;8.10;1.00
318;DHT22;146;53.448;10.228;2024-03-23T02:54:56;8.00;1.00
318;DHT22;146;53.448;10.228;2024-03-23T02:57:45;8.00;1.00
318;DHT22;146;53.448;10.228;2024-03-23T03:00:31;8.00;1.00
318;DHT22;146;53.448;10.228;2024-03-23T03:03:18;8.00;1.00
318;DHT22;146;53.448;10.228;2024-03-23T03:06:04;7.90;1.00
318;DHT22;146;53.448;10.228;2024-03-23T03:08:51;7.90;1.00
318;DHT22;146;53.448;10.228;2024-03-23T03:11:38;7.90;1.00
318;DHT22;146;53.448;10.228;2024-03-23T03:14:26;8.00;1.00
318;DHT22;146;53.448;10.228;2024-03-23T03:17:12;8.00;1.00
318;DHT22;146;53.448;10.228;2024-03-23T03:20:00;8.00;1.00
318;DHT22;146;53.448;10.228;2024-03-23T03:22:46;8.00;1.00
318;DHT22;146;53.448;10.228;2024-03-23T03:25:34;8.00;1.00
318;DHT22;146;53.448;10.228;2024-03-23T03:28:20;8.00;1.00
318;DHT22;146;53.448;10.228;2024-03-23T03:31:08;8.00;1.00
318;DHT22;146;53.448;10.228;2024-03-23T03:33:55;8.00;1.00
318;DHT22;146;53.448;10.228;2024-03-23T03:36:42;8.00;1.00
318;DHT22;146;53.448;10.228;2024-03-23T03:39:28;8.00;1.00
318;DHT22;146;53.448;10.228;2024-03-23T03:42:15;7.90;1.00
318;DHT22;146;53.448;10.228;2024-03-23T03:45:03;7.90;1.00
318;DHT22;146;53.448;10.228;2024-03-23T03:47:51;7.90;1.00
318;DHT22;146;53.448;10.228;2024-03-23T03:50:41;7.90;1.00
318;DHT22;146;53.448;10.228;2024-03-23T03:53:27;7.90;1.00
318;DHT22;146;53.448;10.228;2024-03-23T03:56:15;7.90;1.00
318;DHT22;146;53.448;10.228;2024-03-23T03:59:01;7.80;1.00
318;DHT22;146;53.448;10.228;2024-03-23T04:01:48;7.90;1.00
318;DHT22;146;53.448;10.228;2024-03-23T04:04:36;7.90;1.00
318;DHT22;146;53.448;10.228;2024-03-23T04:07:23;7.80;1.00
318;DHT22;146;53.448;10.228;2024-03-23T04:10:09;7.90;1.00
318;DHT22;146;53.448;10.228;2024-03-23T04:12:57;7.90;1.00
318;DHT22;146;53.448;10.228;2024-03-23T04:15:43;7.90;1.00
318;DHT22;146;53.448;10.228;2024-03-23T04:18:30;7.90;1.00
318;DHT22;146;53.448;10.228;2024-03-23T04:21:18;7.80;1.00
318;DHT22;146;53.448;10.228;2024-03-23T04:24:05;7.80;1.00
318;DHT22;146;53.448;10.228;2024-03-23T04:26:52;7.90;1.00
318;DHT22;146;53.448;10.228;2024-03-23T04:29:39;7.90;1.00
318;DHT22;146;53.448;10.228;2024-03-23T04:32:25;7.80;1.00
318;DHT22;146;53.448;10.228;2024-03-23T04:35:12;7.80;1.00
318;DHT22;146;53.448;10.228;2024-03-23T04:38:00;7.80;1.00
318;DHT22;146;53.448;10.228;2024-03-23T04:40:54;7.80;1.00
318;DHT22;146;53.448;10.228;2024-03-23T04:43:41;7.80;1.00
318;DHT22;146;53.448;10.228;2024-03-23T04:46:28;7.70;1.00
318;DHT22;146;53.448;10.228;2024-03-23T04:49:15;7.70;1.00
318;DHT22;146;53.448;10.228;2024-03-23T04:52:03;7.70;1.00
318;DHT22;146;53.448;10.228;2024-03-23T04:54:52;7.70;1.00
318;DHT22;146;53.448;10.228;2024-03-23T04:57:39;7.60;1.00
318;DHT22;146;53.448;10.228;2024-03-23T05:00:33;7.60;1.00
318;DHT22;146;53.448;10.228;2024-03-23T05:03:19;7.60;1.00
318;DHT22;146;53.448;10.228;2024-03-23T05:06:07;7.60;1.00
318;DHT22;146;53.448;10.228;2024-03-23T05:08:53;7.60;1.00
318;DHT22;146;53.448;10.228;2024-03-23T05:11:41;7.60;1.00
318;DHT22;146;53.448;10.228;2024-03-23T05:14:28;7.60;1.00
318;DHT22;146;53.448;10.228;2024-03-23T05:17:15;7.70;1.00
318;DHT22;146;53.448;10.228;2024-03-23T05:20:01;7.60;1.00
318;DHT22;146;53.448;10.228;2024-03-23T05:22:49;7.60;1.00
318;DHT22;146;53.448;10.228;2024-03-23T05:25:35;7.60;1.00
318;DHT22;146;53.448;10.228;2024-03-23T05:28:24;7.60;1.00
318;DHT22;146;53.448;10.228;2024-03-23T05:31:10;7.60;1.00
318;DHT22;146;53.448;10.228;2024-03-23T05:33:57;7.70;1.00
318;DHT22;146;53.448;10.228;2024-03-23T05:36:43;7.70;1.00
318;DHT22;146;53.448;10.228;2024-03-23T05:39:30;7.60;1.00
318;DHT22;146;53.448;10.228;2024-03-23T05:42:16;7.70;1.00
318;DHT22;146;53.448;10.228;2024-03-23T05:45:06;7.70;1.00
318;DHT22;146;53.448;10.228;2024-03-23T05:47:52;7.70;1.00
318;DHT22;146;53.448;10.228;2024-03-23T05:50:39;7.70;1.00
318;DHT22;146;53.448;10.228;2024-03-23T05:53:26;7.70;1.00
318;DHT22;146;53.448;10.228;2024-03-23T05:56:14;7.70;1.00
318;DHT22;146;53.448;10.228;2024-03-23T05:59:00;7.70;1.00
318;DHT22;146;53.448;10.228;2024-03-23T06:01:49;7.80;1.00
318;DHT22;146;53.448;10.228;2024-03-23T06:04:35;7.80;1.00
318;DHT22;146;53.448;10.228;2024-03-23T06:07:25;7.80;1.00
318;DHT22;146;53.448;10.228;2024-03-23T06:10:13;7.80;1.00
318;DHT22;146;53.448;10.228;2024-03-23T06:13:00;7.80;1.00
318;DHT22;146;53.448;10.228;2024-03-23T06:15:46;7.80;1.00
318;DHT22;146;53.448;10.228;2024-03-23T06:18:36;7.80;1.00
318;DHT22;146;53.448;10.228;2024-03-23T06:21:22;7.80;1.00
318;DHT22;146;53.448;10.228;2024-03-23T06:24:10;7.80;1.00
318;DHT22;146;53.448;10.228;2024-03-23T06:26:56;7.90;1.00
318;DHT22;146;53.448;10.228;2024-03-23T06:29:43;7.90;1.00
318;DHT22;146;53.448;10.228;2024-03-23T06:32:29;7.90;1.00
318;DHT22;146;53.448;10.228;2024-03-23T06:35:18;7.90;1.00
318;DHT22;146;53.448;10.228;2024-03-23T06:38:04;7.90;1.00
318;DHT22;146;53.448;10.228;2024-03-23T06:40:51;7.90;1.00
318;DHT22;146;53.448;10.228;2024-03-23T06:43:38;7.90;1.00
318;DHT22;146;53.448;10.228;2024-03-23T06:46:25;7.90;1.00
318;DHT22;146;53.448;10.228;2024-03-23T06:49:12;7.90;1.00
318;DHT22;146;53.448;10.228;2024-03-23T06:52:00;7.90;1.00
318;DHT22;146;53.448;10.228;2024-03-23T06:54:48;8.00;1.00
318;DHT22;146;53.448;10.228;2024-03-23T06:57:34;8.00;1.00
318;DHT22;146;53.448;10.228;2024-03-23T07:00:21;8.10;1.00
318;DHT22;146;53.448;10.228;2024-03-23T07:03:08;8.20;1.00
318;DHT22;146;53.448;10.228;2024-03-23T07:05:58;8.20;1.00
318;DHT22;146;53.448;10.228;2024-03-23T07:08:45;8.30;1.00
318;DHT22;146;53.448;10.228;2024-03-23T07:11:32;8.30;1.00
318;DHT22;146;53.448;10.228;2024-03-23T07:14:19;8.20;1.00
318;DHT22;146;53.448;10.228;2024-03-23T07:17:06;8.20;1.00
318;DHT22;146;53.448;10.228;2024-03-23T07:19:52;8.10;1.00
318;DHT22;146;53.448;10.228;2024-03-23T07:22:39;8.10;1.00
318;DHT22;146;53.448;10.228;2024-03-23T07:25:27;8.10;1.00
318;DHT22;146;53.448;10.228;2024-03-23T07:28:15;8.00;1.00
318;DHT22;146;53.448;10.228;2024-03-23T07:31:05;7.90;1.00
318;DHT22;146;53.448;10.228;2024-03-23T07:33:54;7.90;1.00
318;DHT22;146;53.448;10.228;2024-03-23T07:36:40;8.00;1.00
318;DHT22;146;53.448;10.228;2024-03-23T07:39:27;8.00;1.00
318;DHT22;146;53.448;10.228;2024-03-23T07:42:15;8.00;1.00
318;DHT22;146;53.448;10.228;2024-03-23T07:45:02;8.00;1.00
318;DHT22;146;53.448;10.228;2024-03-23T07:47:49;7.80;1.00
318;DHT22;146;53.448;10.228;2024-03-23T07:50:36;7.80;1.00
318;DHT22;146;53.448;10.228;2024-03-23T07:53:22;7.80;1.00
318;DHT22;146;53.448;10.228;2024-03-23T07:56:10;7.80;1.00
318;DHT22;146;53.448;10.228;2024-03-23T07:58:58;7.80;1.00
318;DHT22;146;53.448;10.228;2024-03-23T08:01:45;7.80;1.00
318;DHT22;146;53.448;10.228;2024-03-23T08:11:45;8.10;1.00
318;DHT22;146;53.448;10.228;2024-03-23T08:14:34;8.10;1.00
318;DHT22;146;53.448;10.228;2024-03-23T08:17:21;8.20;1.00
318;DHT22;146;53.448;10.228;2024-03-23T08:20:08;8.20;1.00
318;DHT22;146;53.448;10.228;2024-03-23T08:22:55;8.30;1.00
318;DHT22;146;53.448;10.228;2024-03-23T08:25:44;8.40;1.00
318;DHT22;146;53.448;10.228;2024-03-23T08:28:33;8.50;1.00
318;DHT22;146;53.448;10.228;2024-03-23T08:31:20;8.40;1.00
318;DHT22;146;53.448;10.228;2024-03-23T08:34:08;8.40;1.00
318;DHT22;146;53.448;10.228;2024-03-23T08:36:55;8.50;1.00
318;DHT22;146;53.448;10.228;2024-03-23T08:39:43;8.60;1.00
318;DHT22;146;53.448;10.228;2024-03-23T08:42:30;8.50;1.00
318;DHT22;146;53.448;10.228;2024-03-23T08:45:17;8.50;1.00
318;DHT22;146;53.448;10.228;2024-03-23T08:48:05;8.60;1.00
318;DHT22;146;53.448;10.228;2024-03-23T08:50:59;8.70;1.00
318;DHT22;146;53.448;10.228;2024-03-23T08:53:46;8.80;1.00
318;DHT22;146;53.448;10.228;2024-03-23T08:56:33;8.90;1.00
318;DHT22;146;53.448;10.228;2024-03-23T08:59:19;9.00;1.00
318;DHT22;146;53.448;10.228;2024-03-23T09:02:06;9.10;1.00
318;DHT22;146;53.448;10.228;2024-03-23T09:04:54;9.20;1.00
318;DHT22;146;53.448;10.228;2024-03-23T09:07:41;9.30;1.00
318;DHT22;146;53.448;10.228;2024-03-23T09:10:27;9.30;1.00
318;DHT22;146;53.448;10.228;2024-03-23T09:13:15;9.20;1.00
318;DHT22;146;53.448;10.228;2024-03-23T09:16:02;9.20;1.00
318;DHT22;146;53.448;10.228;2024-03-23T09:18:52;9.30;1.00
318;DHT22;146;53.448;10.228;2024-03-23T09:21:40;9.30;1.00
318;DHT22;146;53.448;10.228;2024-03-23T09:24:27;9.40;1.00
318;DHT22;146;53.448;10.228;2024-03-23T09:27:13;9.50;1.00
318;DHT22;146;53.448;10.228;2024-03-23T09:30:00;9.70;1.00
318;DHT22;146;53.448;10.228;2024-03-23T09:32:46;9.70;1.00
318;DHT22;146;53.448;10.228;2024-03-23T09:35:36;9.80;1.00
318;DHT22;146;53.448;10.228;2024-03-23T09:38:24;9.90;1.00
318;DHT22;146;53.448;10.228;2024-03-23T09:41:12;9.80;1.00
318;DHT22;146;53.448;10.228;2024-03-23T09:44:00;9.80;1.00
318;DHT22;146;53.448;10.228;2024-03-23T09:46:48;9.90;1.00
318;DHT22;146;53.448;10.228;2024-03-23T09:49:34;9.80;1.00
318;DHT22;146;53.448;10.228;2024-03-23T09:52:28;9.80;1.00
318;DHT22;146;53.448;10.228;2024-03-23T09:55:16;9.80;1.00
318;DHT22;146;53.448;10.228;2024-03-23T09:58:04;9.90;1.00
318;DHT22;146;53.448;10.228;2024-03-23T10:00:50;9.80;1.00
318;DHT22;146;53.448;10.228;2024-03-23T10:03:44;9.70;1.00
318;DHT22;146;53.448;10.228;2024-03-23T10:06:32;9.70;1.00
318;DHT22;146;53.448;10.228;2024-03-23T10:09:20;9.90;1.00
318;DHT22;146;53.448;10.228;2024-03-23T10:12:10;10.20;1.00
318;DHT22;146;53.448;10.228;2024-03-23T10:14:57;10.40;1.00
318;DHT22;146;53.448;10.228;2024-03-23T10:17:44;10.50;1.00
318;DHT22;146;53.448;10.228;2024-03-23T10:20:30;10.70;1.00
318;DHT22;146;53.448;10.228;2024-03-23T10:23:18;10.90;1.00
318;DHT22;146;53.448;10.228;2024-03-23T10:26:13;10.90;1.00
318;DHT22;146;53.448;10.228;2024-03-23T10:29:02;10.80;1.00
318;DHT22;146;53.448;10.228;2024-03-23T10:31:53;10.60;1.00
318;DHT22;146;53.448;10.228;2024-03-23T10:34:40;10.40;1.00
318;DHT22;146;53.448;10.228;2024-03-23T10:37:27;10.40;1.00
318;DHT22;146;53.448;10.228;2024-03-23T10:40:13;10.20;1.00
318;DHT22;146;53.448;10.228;2024-03-23T10:43:01;10.20;1.00
318;DHT22;146;53.448;10.228;2024-03-23T10:45:50;10.10;1.00
318;DHT22;146;53.448;10.228;2024-03-23T10:48:38;10.00;1.00
318;DHT22;146;53.448;10.228;2024-03-23T10:51:24;10.00;1.00
318;DHT22;146;53.448;10.228;2024-03-23T10:54:12;10.20;1.00
318;DHT22;146;53.448;10.228;2024-03-23T10:57:03;10.20;1.00
318;DHT22;146;53.448;10.228;2024-03-23T10:59:52;10.20;1.00
318;DHT22;146;53.448;10.228;2024-03-23T11:02:40;10.40;1.00
318;DHT22;146;53.448;10.228;2024-03-23T11:05:31;10.60;1.00
318;DHT22;146;53.448;10.228;2024-03-23T11:08:33;11.00;1.00
318;DHT22;146;53.448;10.228;2024-03-23T11:11:21;11.20;1.00
318;DHT22;146;53.448;10.228;2024-03-23T11:14:22;11.20;1.00
318;DHT22;146;53.448;10.228;2024-03-23T11:17:10;11.50;1.00
318;DHT22;146;53.448;10.228;2024-03-23T11:19:59;11.50;1.00
318;DHT22;146;53.448;10.228;2024-03-23T11:22:47;11.30;1.00
318;DHT22;146;53.448;10.228;2024-03-23T11:25:33;10.80;1.00
318;DHT22;146;53.448;10.228;2024-03-23T11:28:20;10.00;1.00
318;DHT22;146;53.448;10.228;2024-03-23T11:31:09;9.40;1.00
318;DHT22;146;53.448;10.228;2024-03-23T11:34:03;9.10;1.00
318;DHT22;146;53.448;10.228;2024-03-23T11:37:03;8.70;1.00
318;DHT22;146;53.448;10.228;2024-03-23T11:39:51;8.50;1.00
318;DHT22;146;53.448;10.228;2024-03-23T11:42:37;8.30;1.00
318;DHT22;146;53.448;10.228;2024-03-23T11:45:24;8.30;1.00
318;DHT22;146;53.448;10.228;2024-03-23T11:48:12;8.40;1.00
318;DHT22;146;53.448;10.228;2024-03-23T11:50:59;8.60;1.00
318;DHT22;146;53.448;10.228;2024-03-23T11:53:47;8.90;1.00
318;DHT22;146;53.448;10.228;2024-03-23T11:56:34;9.10;1.00
318;DHT22;146;53.448;10.228;2024-03-23T11:59:31;9.20;1.00
318;DHT22;146;53.448;10.228;2024-03-23T12:02:18;9.40;1.00
318;DHT22;146;53.448;10.228;2024-03-23T12:05:14;9.60;1.00
318;DHT22;146;53.448;10.228;2024-03-23T12:08:18;9.50;1.00
318;DHT22;146;53.448;10.228;2024-03-23T12:11:07;9.40;1.00
318;DHT22;146;53.448;10.228;2024-03-23T12:13:59;9.40;1.00
318;DHT22;146;53.448;10.228;2024-03-23T12:16:46;9.50;1.00
318;DHT22;146;53.448;10.228;2024-03-23T12:19:33;9.40;1.00
318;DHT22;146;53.448;10.228;2024-03-23T12:22:20;9.20;1.00
318;DHT22;146;53.448;10.228;2024-03-23T12:25:08;9.00;1.00
318;DHT22;146;53.448;10.228;2024-03-23T12:27:58;9.10;1.00
318;DHT22;146;53.448;10.228;2024-03-23T12:30:45;9.20;1.00
318;DHT22;146;53.448;10.228;2024-03-23T12:33:31;9.20;1.00
318;DHT22;146;53.448;10.228;2024-03-23T12:36:19;9.20;1.00
318;DHT22;146;53.448;10.228;2024-03-23T12:39:05;9.20;1.00
318;DHT22;146;53.448;10.228;2024-03-23T12:41:52;9.40;1.00
318;DHT22;146;53.448;10.228;2024-03-23T12:44:39;9.40;1.00
318;DHT22;146;53.448;10.228;2024-03-23T12:47:27;9.30;1.00
318;DHT22;146;53.448;10.228;2024-03-23T12:50:13;9.10;1.00
318;DHT22;146;53.448;10.228;2024-03-23T12:53:00;9.10;1.00
318;DHT22;146;53.448;10.228;2024-03-23T12:55:46;9.00;1.00
318;DHT22;146;53.448;10.228;2024-03-23T12:58:34;9.10;1.00
318;DHT22;146;53.448;10.228;2024-03-23T13:01:21;9.10;1.00
318;DHT22;146;53.448;10.228;2024-03-23T13:04:08;9.10;1.00
318;DHT22;146;53.448;10.228;2024-03-23T13:06:55;9.00;1.00
318;DHT22;146;53.448;10.228;2024-03-23T13:09:42;8.80;1.00
318;DHT22;146;53.448;10.228;2024-03-23T13:12:29;8.70;1.00
318;DHT22;146;53.448;10.228;2024-03-23T13:15:17;8.60;1.00
318;DHT22;146;53.448;10.228;2024-03-23T13:18:05;8.40;1.00
318;DHT22;146;53.448;10.228;2024-03-23T13:20:53;8.10;1.00
318;DHT22;146;53.448;10.228;2024-03-23T13:23:39;7.30;1.00
318;DHT22;146;53.448;10.228;2024-03-23T13:26:28;6.60;1.00
318;DHT22;146;53.448;10.228;2024-03-23T13:29:14;6.50;1.00
318;DHT22;146;53.448;10.228;2024-03-23T13:32:01;6.40;1.00
318;DHT22;146;53.448;10.228;2024-03-23T13:34:48;6.40;1.00
318;DHT22;146;53.448;10.228;2024-03-23T13:37:36;6.40;1.00
318;DHT22;146;53.448;10.228;2024-03-23T13:40:22;6.30;1.00
318;DHT22;146;53.448;10.228;2024-03-23T13:43:09;6.30;1.00
318;DHT22;146;53.448;10.228;2024-03-23T13:45:57;6.50;1.00
318;DHT22;146;53.448;10.228;2024-03-23T13:48:45;6.40;1.00
318;DHT22;146;53.448;10.228;2024-03-23T13:51:33;6.30;1.00
318;DHT22;146;53.448;10.228;2024-03-23T13:54:21;6.30;1.00
318;DHT22;146;53.448;10.228;2024-03-23T13:57:07;6.30;1.00
318;DHT22;146;53.448;10.228;2024-03-23T13:59:54;6.40;1.00
318;DHT22;146;53.448;10.228;2024-03-23T14:02:40;6.40;1.00
318;DHT22;146;53.448;10.228;2024-03-23T14:05:27;6.40;1.00
318;DHT22;146;53.448;10.228;2024-03-23T14:08:15;6.40;1.00
318;DHT22;146;53.448;10.228;2024-03-23T14:11:03;6.40;1.00
318;DHT22;146;53.448;10.228;2024-03-23T14:13:50;6.50;1.00
318;DHT22;146;53.448;10.228;2024-03-23T14:16:38;6.50;1.00
318;DHT22;146;53.448;10.228;2024-03-23T14:19:29;6.70;1.00
318;DHT22;146;53.448;10.228;2024-03-23T14:22:15;6.90;1.00
318;DHT22;146;53.448;10.228;2024-03-23T14:25:11;7.20;1.00
318;DHT22;146;53.448;10.228;2024-03-23T14:27:57;7.40;1.00
318;DHT22;146;53.448;10.228;2024-03-23T14:30:47;7.40;1.00
318;DHT22;146;53.448;10.228;2024-03-23T14:33:35;7.40;1.00
318;DHT22;146;53.448;10.228;2024-03-23T14:36:23;7.40;1.00
318;DHT22;146;53.448;10.228;2024-03-23T14:39:10;7.40;1.00
318;DHT22;146;53.448;10.228;2024-03-23T14:42:00;7.40;1.00
318;DHT22;146;53.448;10.228;2024-03-23T14:44:46;7.40;1.00
318;DHT22;146;53.448;10.228;2024-03-23T14:47:34;7.50;1.00
318;DHT22;146;53.448;10.228;2024-03-23T14:50:20;7.60;1.00
318;DHT22;146;53.448;10.228;2024-03-23T14:53:07;7.80;1.00
318;DHT22;146;53.448;10.228;2024-03-23T14:55:56;7.70;1.00
318;DHT22;146;53.448;10.228;2024-03-23T14:58:51;7.70;1.00
318;DHT22;146;53.448;10.228;2024-03-23T15:01:39;7.80;1.00
318;DHT22;146;53.448;10.228;2024-03-23T15:04:25;7.70;1.00
318;DHT22;146;53.448;10.228;2024-03-23T15:07:12;7.70;1.00
318;DHT22;146;53.448;10.228;2024-03-23T15:09:59;7.70;1.00
318;DHT22;146;53.448;10.228;2024-03-23T15:12:46;7.80;1.00
318;DHT22;146;53.448;10.228;2024-03-23T15:15:39;7.90;1.00
318;DHT22;146;53.448;10.228;2024-03-23T15:18:26;8.10;1.00
318;DHT22;146;53.448;10.228;2024-03-23T15:21:17;8.20;1.00
318;DHT22;146;53.448;10.228;2024-03-23T15:24:07;8.30;1.00
318;DHT22;146;53.448;10.228;2024-03-23T15:26:57;8.30;1.00
318;DHT22;146;53.448;10.228;2024-03-23T15:29:43;8.40;1.00
318;DHT22;146;53.448;10.228;2024-03-23T15:32:34;8.30;1.00
318;DHT22;146;53.448;10.228;2024-03-23T15:35:21;8.30;1.00
318;DHT22;146;53.448;10.228;2024-03-23T15:38:09;8.20;1.00
318;DHT22;146;53.448;10.228;2024-03-23T15:40:55;8.10;1.00
318;DHT22;146;53.448;10.228;2024-03-23T15:43:42;8.00;1.00
318;DHT22;146;53.448;10.228;2024-03-23T15:46:29;7.70;1.00
318;DHT22;146;53.448;10.228;2024-03-23T15:49:17;7.30;1.00
318;DHT22;146;53.448;10.228;2024-03-23T15:52:04;7.20;1.00
318;DHT22;146;53.448;10.228;2024-03-23T15:54:51;7.10;1.00
318;DHT22;146;53.448;10.228;2024-03-23T15:57:38;6.80;1.00
318;DHT22;146;53.448;10.228;2024-03-23T16:00:27;6.60;1.00
318;DHT22;146;53.448;10.228;2024-03-23T16:03:13;6.40;1.00
318;DHT22;146;53.448;10.228;2024-03-23T16:06:02;6.30;1.00
318;DHT22;146;53.448;10.228;2024-03-23T16:08:49;6.30;1.00
318;DHT22;146;53.448;10.228;2024-03-23T16:11:36;6.20;1.00
318;DHT22;146;53.448;10.228;2024-03-23T16:14:22;6.20;1.00
318;DHT22;146;53.448;10.228;2024-03-23T16:17:09;6.20;1.00
318;DHT22;146;53.448;10.228;2024-03-23T16:19:56;6.30;1.00
318;DHT22;146;53.448;10.228;2024-03-23T16:22:44;6.20;1.00
318;DHT22;146;53.448;10.228;2024-03-23T16:25:30;6.20;1.00
318;DHT22;146;53.448;10.228;2024-03-23T16:28:18;6.30;1.00
318;DHT22;146;53.448;10.228;2024-03-23T16:31:05;6.40;1.00
318;DHT22;146;53.448;10.228;2024-03-23T16:33:53;6.40;1.00
318;DHT22;146;53.448;10.228;2024-03-23T16:36:39;6.20;1.00
318;DHT22;146;53.448;10.228;2024-03-23T16:39:28;6.20;1.00
318;DHT22;146;53.448;10.228;2024-03-23T16:42:14;6.00;1.00
318;DHT22;146;53.448;10.228;2024-03-23T16:45:01;5.90;1.00
318;DHT22;146;53.448;10.228;2024-03-23T16:47:48;6.00;1.00
318;DHT22;146;53.448;10.228;2024-03-23T16:50:35;6.00;1.00
318;DHT22;146;53.448;10.228;2024-03-23T16:53:21;6.00;1.00
318;DHT22;146;53.448;10.228;2024-03-23T16:56:10;6.00;1.00
318;DHT22;146;53.448;10.228;2024-03-23T16:58:56;6.20;1.00
318;DHT22;146;53.448;10.228;2024-03-23T17:01:43;6.30;1.00
318;DHT22;146;53.448;10.228;2024-03-23T17:04:29;6.40;1.00
318;DHT22;146;53.448;10.228;2024-03-23T17:07:17;6.40;1.00
318;DHT22;146;53.448;10.228;2024-03-23T17:10:03;6.40;1.00
318;DHT22;146;53.448;10.228;2024-03-23T17:12:52;6.40;1.00
318;DHT22;146;53.448;10.228;2024-03-23T17:15:42;6.40;1.00
318;DHT22;146;53.448;10.228;2024-03-23T17:18:29;6.40;1.00
318;DHT22;146;53.448;10.228;2024-03-23T17:21:16;6.40;1.00
318;DHT22;146;53.448;10.228;2024-03-23T17:24:04;6.30;1.00
318;DHT22;146;53.448;10.228;2024-03-23T17:26:50;6.20;1.00
318;DHT22;146;53.448;10.228;2024-03-23T17:29:39;6.10;1.00
318;DHT22;146;53.448;10.228;2024-03-23T17:32:27;6.00;1.00
318;DHT22;146;53.448;10.228;2024-03-23T17:35:14;6.00;1.00
318;DHT22;146;53.448;10.228;2024-03-23T17:38:01;5.90;1.00
318;DHT22;146;53.448;10.228;2024-03-23T17:40:55;5.90;1.00
318;DHT22;146;53.448;10.228;2024-03-23T17:43:44;5.80;1.00
318;DHT22;146;53.448;10.228;2024-03-23T17:46:34;5.80;1.00
318;DHT22;146;53.448;10.228;2024-03-23T17:49:20;5.80;1.00
318;DHT22;146;53.448;10.228;2024-03-23T17:52:10;5.80;1.00
318;DHT22;146;53.448;10.228;2024-03-23T17:54:59;5.80;1.00
318;DHT22;146;53.448;10.228;2024-03-23T17:57:47;5.70;1.00
318;DHT22;146;53.448;10.228;2024-03-23T18:00:33;5.70;1.00
318;DHT22;146;53.448;10.228;2024-03-23T18:03:22;5.70;1.00
318;DHT22;146;53.448;10.228;2024-03-23T18:06:08;5.60;1.00
318;DHT22;146;53.448;10.228;2024-03-23T18:08:55;5.60;1.00
318;DHT22;146;53.448;10.228;2024-03-23T18:11:41;5.60;1.00
318;DHT22;146;53.448;10.228;2024-03-23T18:14:29;5.50;1.00
318;DHT22;146;53.448;10.228;2024-03-23T18:17:15;5.50;1.00
318;DHT22;146;53.448;10.228;2024-03-23T18:20:04;5.50;1.00
318;DHT22;146;53.448;10.228;2024-03-23T18:22:51;5.40;1.00
318;DHT22;146;53.448;10.228;2024-03-23T18:25:38;5.30;1.00
318;DHT22;146;53.448;10.228;2024-03-23T18:28:24;5.30;1.00
318;DHT22;146;53.448;10.228;2024-03-23T18:31:12;5.30;1.00
318;DHT22;146;53.448;10.228;2024-03-23T18:33:58;5.30;1.00
318;DHT22;146;53.448;10.228;2024-03-23T18:36:47;5.20;1.00
318;DHT22;146;53.448;10.228;2024-03-23T18:39:34;5.20;1.00
318;DHT22;146;53.448;10.228;2024-03-23T18:42:21;5.20;1.00
318;DHT22;146;53.448;10.228;2024-03-23T18:45:07;5.20;1.00
318;DHT22;146;53.448;10.228;2024-03-23T18:47:55;5.20;1.00
318;DHT22;146;53.448;10.228;2024-03-23T18:50:41;5.10;1.00
318;DHT22;146;53.448;10.228;2024-03-23T18:53:30;5.10;1.00
318;DHT22;146;53.448;10.228;2024-03-23T18:56:16;5.10;1.00
318;DHT22;146;53.448;10.228;2024-03-23T18:59:04;5.10;1.00
318;DHT22;146;53.448;10.228;2024-03-23T19:01:51;5.10;1.00
318;DHT22;146;53.448;10.228;2024-03-23T19:04:38;5.00;1.00
318;DHT22;146;53.448;10.228;2024-03-23T19:07:24;5.10;1.00
318;DHT22;146;53.448;10.228;2024-03-23T19:10:13;5.10;1.00
318;DHT22;146;53.448;10.228;2024-03-23T19:12:59;5.10;1.00
318;DHT22;146;53.448;10.228;2024-03-23T19:15:46;5.10;1.00
318;DHT22;146;53.448;10.228;2024-03-23T19:18:32;5.10;1.00
318;DHT22;146;53.448;10.228;2024-03-23T19:21:20;5.10;1.00
318;DHT22;146;53.448;10.228;2024-03-23T19:24:08;5.10;1.00
318;DHT22;146;53.448;10.228;2024-03-23T19:26:56;5.10;1.00
318;DHT22;146;53.448;10.228;2024-03-23T19:29:42;5.10;1.00
318;DHT22;146;53.448;10.228;2024-03-23T19:32:29;5.10;1.00
318;DHT22;146;53.448;10.228;2024-03-23T19:35:16;5.10;1.00
318;DHT22;146;53.448;10.228;2024-03-23T19:38:03;5.10;1.00
318;DHT22;146;53.448;10.228;2024-03-23T19:40:53;5.10;1.00
318;DHT22;146;53.448;10.228;2024-03-23T19:43:41;5.10;1.00
318;DHT22;146;53.448;10.228;2024-03-23T19:46:28;5.20;1.00
318;DHT22;146;53.448;10.228;2024-03-23T19:49:15;5.30;1.00
318;DHT22;146;53.448;10.228;2024-03-23T19:52:01;5.30;1.00
318;DHT22;146;53.448;10.228;2024-03-23T19:54:49;5.40;1.00
318;DHT22;146;53.448;10.228;2024-03-23T19:57:35;5.40;1.00
318;DHT22;146;53.448;10.228;2024-03-23T20:00:24;5.40;1.00
318;DHT22;146;53.448;10.228;2024-03-23T20:03:10;5.30;1.00
318;DHT22;146;53.448;10.228;2024-03-23T20:05:58;5.30;1.00
318;DHT22;146;53.448;10.228;2024-03-23T20:08:44;5.20;1.00
318;DHT22;146;53.448;10.228;2024-03-23T20:11:31;5.30;1.00